Gas Renovatio — 9HA2845 — position and weather

sailwx.info

Track history (hours):
 
Tides and Currents Weather Stations Pressure Air Temp Water Temp Dewpoint Dewpoint Depression Visibility Wind Speed Wind Dir Waves Ship Positions

Gas Renovatio

Last reported at 2014-Aug-28 08:33 UTC. Time now 2014-Aug-30 02:33 UTC.
Position N 37°41' W 023°48'.

Length 99 m; draft 4.9 m.

Type: Tanker. MMSI: 256325000.

Date/timePositionNaut miles runAvg speedWind from/ knotsBaromVisibWave heightAir tempDewpointWater temp
2014-Aug-28 08:33N 37°41' W 023°48'1111.3
2014-Aug-28 07:33N 37°41' W 024°02'1111.0
2014-Aug-28 06:33N 37°41' W 024°16'1111.1
2014-Aug-28 05:33N 37°41' W 024°30'1211.5
2014-Aug-28 04:34N 37°41' W 024°45'1110.8
2014-Aug-28 03:33N 37°41' W 024°58'1110.9
2014-Aug-28 02:33N 37°40' W 025°12'1110.8
2014-Aug-28 01:33N 37°40' W 025°26'10 9.6
2014-Aug-28 00:33N 37°43' W 025°37'2 2.4
2014-Aug-27 23:32N 37°44' W 025°40'0 0.0
2014-Aug-27 22:32N 37°44' W 025°40'0 0.0
2014-Aug-27 21:32N 37°44' W 025°40'0 0.0
2014-Aug-27 20:32N 37°44' W 025°40'0 0.0
2014-Aug-27 19:32N 37°44' W 025°40'0 0.0
2014-Aug-27 18:32N 37°44' W 025°40'0 0.0
2014-Aug-27 17:32N 37°44' W 025°40'0 0.0
2014-Aug-27 16:32N 37°44' W 025°40'0 0.0
2014-Aug-27 15:32N 37°44' W 025°40'0 0.0
2014-Aug-27 14:32N 37°44' W 025°40'0 0.0
2014-Aug-27 13:32N 37°44' W 025°40'0 0.0
2014-Aug-27 12:32N 37°44' W 025°40'0 0.0
2014-Aug-27 11:32N 37°44' W 025°40'0 0.0
2014-Aug-27 10:32N 37°44' W 025°40'0 0.0
2014-Aug-27 09:32N 37°44' W 025°40'0 0.0
2014-Aug-27 08:32N 37°44' W 025°40'0 0.0
2014-Aug-27 07:32N 37°44' W 025°40'0 0.0
2014-Aug-27 06:32N 37°44' W 025°40'0 0.0
2014-Aug-27 05:32N 37°44' W 025°40'0 0.0
2014-Aug-27 04:32N 37°44' W 025°40'0 0.0
2014-Aug-27 03:32N 37°44' W 025°40'0 0.0
2014-Aug-27 02:32N 37°44' W 025°40'0 0.0
2014-Aug-27 01:32N 37°44' W 025°40'0 0.0
2014-Aug-27 00:32N 37°44' W 025°40'0 0.0
2014-Aug-26 23:32N 37°44' W 025°40'1 1.4
2014-Aug-26 22:34N 37°44' W 025°38'0 0.0
2014-Aug-26 21:31N 37°44' W 025°38'0 0.0
2014-Aug-26 20:31N 37°44' W 025°38'0 0.0
2014-Aug-26 19:31N 37°44' W 025°38'0 0.5
2014-Aug-26 18:34N 37°44' W 025°39'8 7.9
2014-Aug-26 17:34N 37°45' W 025°48'1211.6
2014-Aug-26 16:33N 37°53' W 025°59'1010.5
2014-Aug-26 15:34N 38°01' W 026°08'1110.7
2014-Aug-26 14:33N 38°08' W 026°18'1110.6
2014-Aug-26 13:34N 38°16' W 026°27'1010.4
2014-Aug-26 12:33N 38°23' W 026°36'1110.6
2014-Aug-26 11:34N 38°31' W 026°46'1010.0
2014-Aug-26 10:34N 38°38' W 026°55'8 6.4
2014-Aug-26 09:17N 38°43' W 027°03'0 0.0
2014-Aug-26 00:23N 38°43' W 027°03'1 0.7
2014-Aug-25 23:34N 38°43' W 027°02'0 0.0
2014-Aug-25 22:33N 38°43' W 027°02'0 0.0
2014-Aug-25 21:33N 38°43' W 027°02'0 0.1
2014-Aug-25 20:33N 38°43' W 027°02'0 0.0
2014-Aug-25 19:33N 38°43' W 027°02'0 0.0
2014-Aug-25 18:33N 38°43' W 027°02'1 0.6
2014-Aug-25 17:33N 38°43' W 027°01'7 7.0
2014-Aug-25 16:33N 38°36' W 027°01'1110.6
2014-Aug-25 15:33N 38°33' W 027°14'1110.5
2014-Aug-25 14:33N 38°31' W 027°28'1010.0
2014-Aug-25 13:33N 38°28' W 027°40'1110.7
2014-Aug-25 12:33N 38°30' W 027°53'1010.1
2014-Aug-25 11:33N 38°32' W 028°06'1010.2
2014-Aug-25 10:33N 38°35' W 028°19'10 9.6
2014-Aug-25 09:33N 38°34' W 028°31'6 5.4
2014-Aug-25 08:32N 38°32' W 028°37'0 0.0
2014-Aug-25 07:32N 38°32' W 028°37'0 0.0
2014-Aug-25 06:32N 38°32' W 028°37'0 0.0
2014-Aug-25 05:32N 38°32' W 028°37'0 0.0
2014-Aug-25 04:32N 38°32' W 028°37'0 0.0
2014-Aug-25 03:32N 38°32' W 028°37'0 0.0
2014-Aug-25 02:32N 38°32' W 028°37'0 0.0
2014-Aug-25 01:32N 38°32' W 028°37'0 0.0
2014-Aug-25 00:32N 38°32' W 028°37'1 0.5
2014-Aug-24 23:33N 38°32' W 028°37'0 0.0
2014-Aug-24 22:33N 38°32' W 028°37'0 0.0
2014-Aug-24 21:33N 38°32' W 028°37'0 0.0
2014-Aug-24 20:33N 38°32' W 028°37'0 0.0
2014-Aug-24 19:33N 38°32' W 028°37'0 0.0
2014-Aug-24 18:33N 38°32' W 028°37'3 2.9
2014-Aug-24 17:33N 38°33' W 028°33'9 8.9
2014-Aug-24 16:33N 38°35' W 028°22'9 9.2
2014-Aug-24 15:33N 38°33' W 028°11'10 9.7
2014-Aug-24 14:33N 38°30' W 027°59'10 9.6
2014-Aug-24 13:33N 38°28' W 027°47'9 9.4
2014-Aug-24 12:33N 38°25' W 027°36'9 9.2
2014-Aug-24 11:33N 38°23' W 027°24'9 9.3
2014-Aug-24 10:33N 38°20' W 027°13'9 9.1
2014-Aug-24 09:33N 38°18' W 027°02'9 9.2
2014-Aug-24 08:33N 38°18' W 026°50'10 9.6
2014-Aug-24 07:33N 38°18' W 026°38'10 9.7
2014-Aug-24 06:34N 38°17' W 026°25'10 9.7
2014-Aug-24 05:33N 38°17' W 026°13'10 9.6
2014-Aug-24 04:33N 38°17' W 026°01'10 9.9
2014-Aug-24 03:33N 38°17' W 025°48'10 9.6
2014-Aug-24 02:34N 38°16' W 025°36'9 9.5
2014-Aug-24 01:33N 38°16' W 025°24'9 9.3
2014-Aug-24 00:33N 38°16' W 025°12'9 9.4
2014-Aug-23 23:33N 38°15' W 025°00'9 9.5
2014-Aug-23 22:33N 38°15' W 024°48'9 9.5
2014-Aug-23 21:33N 38°15' W 024°36'9 9.4
2014-Aug-23 20:33N 38°15' W 024°24'9 9.5
2014-Aug-23 19:33N 38°15' W 024°12'  
2014-Aug-20 17:21N 37°55' W 008°56'4 0.1
2014-Aug-18 19:31N 37°54' W 008°51'0 0.0
2014-Aug-18 18:25N 37°54' W 008°51'0 0.0
2014-Aug-18 14:31N 37°54' W 008°51'0 0.0
2014-Aug-18 09:13N 37°55' W 008°51'  
Track history (hours):
 
Tides and Currents Weather Stations Pressure Air Temp Water Temp Dewpoint Dewpoint Depression Visibility Wind Speed Wind Dir Waves Ship Positions

Gas Renovatio

Last reported at 2014-Aug-28 08:33 UTC. Time now 2014-Aug-30 02:33 UTC.
Position N 37°41' W 023°48'.

Length 99 m; draft 4.9 m.

Type: Tanker. MMSI: 256325000.

Date/timePositionNaut miles runAvg speedWind from/ knotsBaromVisibWave heightAir tempDewpointWater temp
2014-Aug-28 08:33N 37°41' W 023°48'1111.3
2014-Aug-28 07:33N 37°41' W 024°02'1111.0
2014-Aug-28 06:33N 37°41' W 024°16'1111.1
2014-Aug-28 05:33N 37°41' W 024°30'1211.5
2014-Aug-28 04:34N 37°41' W 024°45'1110.8
2014-Aug-28 03:33N 37°41' W 024°58'1110.9
2014-Aug-28 02:33N 37°40' W 025°12'1110.8
2014-Aug-28 01:33N 37°40' W 025°26'10 9.6
2014-Aug-28 00:33N 37°43' W 025°37'2 2.4
2014-Aug-27 23:32N 37°44' W 025°40'0 0.0
2014-Aug-27 22:32N 37°44' W 025°40'0 0.0
2014-Aug-27 21:32N 37°44' W 025°40'0 0.0
2014-Aug-27 20:32N 37°44' W 025°40'0 0.0
2014-Aug-27 19:32N 37°44' W 025°40'0 0.0
2014-Aug-27 18:32N 37°44' W 025°40'0 0.0
2014-Aug-27 17:32N 37°44' W 025°40'0 0.0
2014-Aug-27 16:32N 37°44' W 025°40'0 0.0
2014-Aug-27 15:32N 37°44' W 025°40'0 0.0
2014-Aug-27 14:32N 37°44' W 025°40'0 0.0
2014-Aug-27 13:32N 37°44' W 025°40'0 0.0
2014-Aug-27 12:32N 37°44' W 025°40'0 0.0
2014-Aug-27 11:32N 37°44' W 025°40'0 0.0
2014-Aug-27 10:32N 37°44' W 025°40'0 0.0
2014-Aug-27 09:32N 37°44' W 025°40'0 0.0
2014-Aug-27 08:32N 37°44' W 025°40'0 0.0
2014-Aug-27 07:32N 37°44' W 025°40'0 0.0
2014-Aug-27 06:32N 37°44' W 025°40'0 0.0
2014-Aug-27 05:32N 37°44' W 025°40'0 0.0
2014-Aug-27 04:32N 37°44' W 025°40'0 0.0
2014-Aug-27 03:32N 37°44' W 025°40'0 0.0
2014-Aug-27 02:32N 37°44' W 025°40'0 0.0
2014-Aug-27 01:32N 37°44' W 025°40'0 0.0
2014-Aug-27 00:32N 37°44' W 025°40'0 0.0
2014-Aug-26 23:32N 37°44' W 025°40'1 1.4
2014-Aug-26 22:34N 37°44' W 025°38'0 0.0
2014-Aug-26 21:31N 37°44' W 025°38'0 0.0
2014-Aug-26 20:31N 37°44' W 025°38'0 0.0
2014-Aug-26 19:31N 37°44' W 025°38'0 0.5
2014-Aug-26 18:34N 37°44' W 025°39'8 7.9
2014-Aug-26 17:34N 37°45' W 025°48'1211.6
2014-Aug-26 16:33N 37°53' W 025°59'1010.5
2014-Aug-26 15:34N 38°01' W 026°08'1110.7
2014-Aug-26 14:33N 38°08' W 026°18'1110.6
2014-Aug-26 13:34N 38°16' W 026°27'1010.4
2014-Aug-26 12:33N 38°23' W 026°36'1110.6
2014-Aug-26 11:34N 38°31' W 026°46'1010.0
2014-Aug-26 10:34N 38°38' W 026°55'8 6.4
2014-Aug-26 09:17N 38°43' W 027°03'0 0.0
2014-Aug-26 00:23N 38°43' W 027°03'1 0.7
2014-Aug-25 23:34N 38°43' W 027°02'0 0.0
2014-Aug-25 22:33N 38°43' W 027°02'0 0.0
2014-Aug-25 21:33N 38°43' W 027°02'0 0.1
2014-Aug-25 20:33N 38°43' W 027°02'0 0.0
2014-Aug-25 19:33N 38°43' W 027°02'0 0.0
2014-Aug-25 18:33N 38°43' W 027°02'1 0.6
2014-Aug-25 17:33N 38°43' W 027°01'7 7.0
2014-Aug-25 16:33N 38°36' W 027°01'1110.6
2014-Aug-25 15:33N 38°33' W 027°14'1110.5
2014-Aug-25 14:33N 38°31' W 027°28'1010.0
2014-Aug-25 13:33N 38°28' W 027°40'1110.7
2014-Aug-25 12:33N 38°30' W 027°53'1010.1
2014-Aug-25 11:33N 38°32' W 028°06'1010.2
2014-Aug-25 10:33N 38°35' W 028°19'10 9.6
2014-Aug-25 09:33N 38°34' W 028°31'6 5.4
2014-Aug-25 08:32N 38°32' W 028°37'0 0.0
2014-Aug-25 07:32N 38°32' W 028°37'0 0.0
2014-Aug-25 06:32N 38°32' W 028°37'0 0.0
2014-Aug-25 05:32N 38°32' W 028°37'0 0.0
2014-Aug-25 04:32N 38°32' W 028°37'0 0.0
2014-Aug-25 03:32N 38°32' W 028°37'0 0.0
2014-Aug-25 02:32N 38°32' W 028°37'0 0.0
2014-Aug-25 01:32N 38°32' W 028°37'0 0.0
2014-Aug-25 00:32N 38°32' W 028°37'1 0.5
2014-Aug-24 23:33N 38°32' W 028°37'0 0.0
2014-Aug-24 22:33N 38°32' W 028°37'0 0.0
2014-Aug-24 21:33N 38°32' W 028°37'0 0.0
2014-Aug-24 20:33N 38°32' W 028°37'0 0.0
2014-Aug-24 19:33N 38°32' W 028°37'0 0.0
2014-Aug-24 18:33N 38°32' W 028°37'3 2.9
2014-Aug-24 17:33N 38°33' W 028°33'9 8.9
2014-Aug-24 16:33N 38°35' W 028°22'9 9.2
2014-Aug-24 15:33N 38°33' W 028°11'10 9.7
2014-Aug-24 14:33N 38°30' W 027°59'10 9.6
2014-Aug-24 13:33N 38°28' W 027°47'9 9.4
2014-Aug-24 12:33N 38°25' W 027°36'9 9.2
2014-Aug-24 11:33N 38°23' W 027°24'9 9.3
2014-Aug-24 10:33N 38°20' W 027°13'9 9.1
2014-Aug-24 09:33N 38°18' W 027°02'9 9.2
2014-Aug-24 08:33N 38°18' W 026°50'10 9.6
2014-Aug-24 07:33N 38°18' W 026°38'10 9.7
2014-Aug-24 06:34N 38°17' W 026°25'10 9.7
2014-Aug-24 05:33N 38°17' W 026°13'10 9.6
2014-Aug-24 04:33N 38°17' W 026°01'10 9.9
2014-Aug-24 03:33N 38°17' W 025°48'10 9.6
2014-Aug-24 02:34N 38°16' W 025°36'9 9.5
2014-Aug-24 01:33N 38°16' W 025°24'9 9.3
2014-Aug-24 00:33N 38°16' W 025°12'9 9.4
2014-Aug-23 23:33N 38°15' W 025°00'9 9.5
2014-Aug-23 22:33N 38°15' W 024°48'9 9.5
2014-Aug-23 21:33N 38°15' W 024°36'9 9.4
2014-Aug-23 20:33N 38°15' W 024°24'9 9.5
2014-Aug-23 19:33N 38°15' W 024°12'  
2014-Aug-20 17:21N 37°55' W 008°56'4 0.1
2014-Aug-18 19:31N 37°54' W 008°51'0 0.0
2014-Aug-18 18:25N 37°54' W 008°51'0 0.0
2014-Aug-18 14:31N 37°54' W 008°51'0 0.0
2014-Aug-18 09:13N 37°55' W 008°51'  

Dump ship's entire track history